Líbí se Vám tento web? Budeme velmi rádi, pokud přidáte hodnocení +1

Seznam meteostanic a jejich METAR

Vyhledat místa podle abecedy:
A B C D E F G H I J K L M N O P Q R S T U V W X Y Z

Filtrovat:

ID stanice:
a/nebo
Název místa (fulltext):
 
Místo (ID)Naposledy načteno 
Šerák (Serak) 17.01.2018 21:00 UTC Zobrazit data
Místo: Šerák
Teplota: -7 °C (pocitová: -18 °C)
Vítr: 4 m/s z(e) 290°
Počasí: sněží
Dohlednost: 3400 m
Zákl. oblačnosti: 8/8 30 m
Vlhkost: 100%
Svratouch (Svratouch) 17.01.2018 20:00 UTC Zobrazit data
Místo: Svratouch
Teplota: -3 °C (pocitová: -14 °C)
Vítr: 6 m/s z(e) 270°
Počasí: skoro zataženo
Dohlednost: 30 km
Zákl. oblačnosti: 2/8 330 m;6/8 1290 m
Vlhkost: 93%
Saipan Island (PGSN) 17.01.2018 20:54 UTC Zobrazit METAR
PGSN 172054Z 09011KT 10SM FEW026 BKN110 27/24 A2988 RMK AO2 SLP140 T02670239 53005
Salzburg (LOWS) 17.01.2018 19:50 UTC Zobrazit METAR
LOWS 171950Z 28011G22KT 240V310 6000 -SHSN FEW002 SCT008 BKN014 00/M01 Q1010 R15/29//95 BECMG SCT015
Samara (UWWW) Zatím nenačteno  
San Andres Island (SKSP) 17.01.2018 21:00 UTC Zobrazit METAR
SKSP 172100Z 03012KT 9999 SCT018 OVC200 28/24 A2990
San Jose (MRPV) 17.01.2018 21:00 UTC Zobrazit METAR
MRPV 172100Z 07014KT 5000 -RA FEW015 BKN100 20/16 A3001 NOSIG
San Juan (TJSJ) 17.01.2018 20:56 UTC Zobrazit METAR
TJSJ 172056Z 08013KT 10SM FEW035 FEW050 SCT250 27/23 A2998 RMK AO2 SLP152 T02720228 55008
San Salvador (MSLP) 17.01.2018 20:50 UTC Zobrazit METAR
MSLP 172050Z 01012G24KT 340V050 9999 FEW077 32/14 Q1012 A2988 NOSIG
Sanaa (OYSN) 08.02.2017 13:00 UTC Zobrazit METAR
OYSN 081300Z 03008KT 9999 FEW030 25/M05 Q1022
Santiago (SCEL) 17.01.2018 21:00 UTC Zobrazit METAR
SCEL 172100Z 22014KT CAVOK 30/08 Q1013 NOSIG
Santiago (LEST) 17.01.2018 21:00 UTC Zobrazit METAR
LEST 172100Z 00000KT CAVOK 05/04 Q1029 NOSIG
Santo Domingo (MDHE) 08.04.2012 12:00 UTC  
Santorini (LGSR) 17.01.2018 17:50 UTC Zobrazit METAR
LGSR 171750Z 24021G31KT 9999 BKN025 16/11 Q1005
Sao Tome (FPST) 16.01.2018 19:00 UTC Zobrazit METAR
FPST 161900Z 22003KT 9999 FEW025 29/26 Q1011 NOSIG
Sarajevo (LQSA) 17.01.2018 21:00 UTC Zobrazit METAR
LQSA 172100Z 36003KT 320V050 8000 SCT035 BKN050 01/00 Q1006
Saratov (UWSS) 06.03.2017 17:00 UTC Zobrazit METAR
UWSS 061700Z CAVOK 04/00 Q1024 R12/190055 NOSIG RMK QFE756
Sarmellek (LHSM) 17.01.2018 15:45 UTC Zobrazit METAR
LHSM 171545Z 29005KT 9999 FEW018 BKN083 02/01 Q1002
Seinajoki (EFSI) 17.01.2018 20:50 UTC Zobrazit METAR
EFSI 172050Z AUTO 09007KT 9999 -SHSN OVC050 M11/M13 Q1000
Seoul/Incheon (RKSI) 17.01.2018 20:00 UTC Zobrazit METAR
RKSI 172000Z 01001KT 1600 BR FEW020 BKN180 01/M01 Q1021 NOSIG
Seville (LEZL) 17.01.2018 21:00 UTC Zobrazit METAR
LEZL 172100Z 06004KT CAVOK 13/10 Q1021 NOSIG
Seychelles (FSIA) 17.01.2018 21:00 UTC Zobrazit METAR
FSIA 172100Z AUTO 32011KT 9999 SCT018/// BKN050/// BKN084/// 28/24 Q1009
Shymkent (UAII) Zatím nenačteno  
Siauliai (EYSA) 17.01.2018 20:50 UTC Zobrazit METAR
EYSA 172050Z 04002KT 9999 -SN OVC027 M06/M07 Q0993 R14L/29//95 R14R/29//95 BLU NOSIG
Sibiu (LRSB) 17.01.2018 21:00 UTC Zobrazit METAR
LRSB 172100Z 30008KT 4000 -SN BR SCT010 OVC017 01/00 Q0995 R27/599999 BECMG 5000 BR
Simferopol' (UKFF) Zatím nenačteno  
Singapore (WSSS) 17.01.2018 21:00 UTC Zobrazit METAR
WSSS 172100Z 35003KT 310V040 9999 FEW018 BKN300 25/24 Q1008 NOSIG
Skopje (LWSK) 17.01.2018 21:00 UTC Zobrazit METAR
LWSK 172100Z VRB02KT 9999 -DZ SCT020 BKN040 OVC070 04/02 Q1000 NOSIG
Soderhamn (ESNY) Zatím nenačteno  
Sofia (LBSF) 17.01.2018 21:00 UTC Zobrazit METAR
LBSF 172100Z 28017KT 9999 FEW015 SCT017 OVC038 02/00 Q0995 R99/29//95 NOSIG
Sonderborg (EKSB) 17.01.2018 20:50 UTC Zobrazit METAR
EKSB 172050Z 26005KT 210V290 8000 -SHRASN SCT010 BKN023 02/01 Q0995
Split (LDSP) 17.01.2018 21:00 UTC Zobrazit METAR
LDSP 172100Z 32008KT CAVOK 07/M03 Q1008 NOSIG
St. Denis (FMEE) 17.01.2018 13:00 UTC Zobrazit METAR
FMEE 171300Z 07017KT 050V120 9999 FEW023 BKN083 BKN150 27/20 Q1003 NOSIG
St. Georges (TGPY) 17.01.2018 21:00 UTC Zobrazit METAR
TGPY 172100Z 09008KT 9999 FEW019 29/24 Q1012 NOSIG
St. Johns (TAPA) 17.01.2018 21:00 UTC Zobrazit METAR
TAPA 172100Z 09007KT 9999 FEW018 26/21 Q1015 NOSIG
St. Petersburg (ULLI) Zatím nenačteno  
St. Pierre Island (LFVP) 17.01.2018 21:00 UTC Zobrazit METAR
LFVP 172100Z 27005KT 9999 SCT013 BKN046 OVC100 M02/M04 Q1028 NOSIG
Stavanger (ENZV) 17.01.2018 20:50 UTC Zobrazit METAR
ENZV 172050Z 14009KT 6000 -SHSN FEW006 SCT015 BKN020 00/M01 Q0988
Stockholm (ESSA) 17.01.2018 20:50 UTC Zobrazit METAR
ESSA 172050Z 04008KT 9999 BKN034 M04/M05 Q0993 R01L/510168 R01R/510167 R08/510172 NOSIG
Strasbourg (LFST) 17.01.2018 21:00 UTC Zobrazit METAR
LFST 172100Z AUTO 19005KT 9999 FEW013 BKN220 BKN240 02/00 Q1014 TEMPO 25020G30KT 4200 -SHRA BKN010 BKN030
Stuttgart (EDDS) 17.01.2018 20:50 UTC Zobrazit METAR
EDDS 172050Z 24009KT 200V270 9999 SCT029 BKN034 03/M01 Q1012 NOSIG
Reklama

Počasí na Váš email

Emaily jsou bez reklamy a bez spamu



Odhlásit newsletter

Reklama


Lunární kalendář

  • 24.01.
  • 31.01.
  • 07.02.
  • 15.02.



Jsme na Google Plus

Reklama
Povinné ručení



Může Vás také zajímat:


Reklama